createdAt,value
2022-11-25T00:01:28.423Z,4.80
2022-11-25T00:03:58.479Z,4.50
2022-11-25T00:06:29.076Z,5.00
2022-11-25T00:09:00.654Z,5.17
2022-11-25T00:11:30.070Z,4.83
2022-11-25T00:13:59.803Z,4.33
2022-11-25T00:16:28.494Z,4.33
2022-11-25T00:18:58.868Z,4.00
2022-11-25T00:21:29.769Z,4.67
2022-11-25T00:24:01.109Z,4.70
2022-11-25T00:26:31.718Z,4.90
2022-11-25T00:29:01.235Z,4.70
2022-11-25T00:31:31.102Z,5.70
2022-11-25T00:34:00.457Z,4.90
2022-11-25T00:36:30.407Z,4.80
2022-11-25T00:39:01.458Z,4.80
2022-11-25T00:41:48.310Z,4.57
2022-11-25T00:44:35.885Z,4.90
2022-11-25T00:47:05.635Z,4.57
2022-11-25T00:49:34.225Z,4.90
2022-11-25T00:52:03.569Z,5.50
2022-11-25T00:54:33.410Z,5.13
2022-11-25T00:57:02.335Z,5.10
2022-11-25T00:59:30.413Z,5.60
2022-11-25T01:01:58.553Z,5.80
2022-11-25T01:04:27.271Z,5.40
2022-11-25T01:06:57.363Z,5.57
2022-11-25T01:09:26.002Z,5.40
2022-11-25T01:11:55.610Z,4.57
2022-11-25T01:14:24.708Z,4.70
2022-11-25T01:16:53.297Z,5.00
2022-11-25T01:19:22.197Z,4.90
2022-11-25T01:21:50.370Z,4.77
2022-11-25T01:24:19.332Z,4.67
2022-11-25T01:26:47.812Z,4.67
2022-11-25T01:29:19.722Z,4.93
2022-11-25T01:31:49.698Z,4.93
2022-11-25T01:34:20.141Z,4.43
2022-11-25T01:36:48.748Z,4.33
2022-11-25T01:39:19.823Z,5.33
2022-11-25T01:41:48.978Z,5.40
2022-11-25T01:44:20.526Z,5.17
2022-11-25T01:46:56.279Z,5.27
2022-11-25T01:49:30.723Z,4.67
2022-11-25T01:52:04.229Z,4.70
2022-11-25T01:54:36.855Z,4.57
2022-11-25T01:57:10.456Z,4.60
2022-11-25T01:59:45.089Z,5.30
2022-11-25T02:02:14.754Z,4.40
2022-11-25T02:04:44.582Z,3.83
2022-11-25T02:07:19.984Z,3.60
2022-11-25T02:09:50.205Z,3.90
2022-11-25T02:12:21.624Z,4.53
2022-11-25T02:14:53.623Z,4.17
2022-11-25T02:17:22.162Z,4.00
2022-11-25T02:20:01.480Z,3.50
2022-11-25T02:22:43.042Z,3.53
2022-11-25T02:25:17.094Z,3.53
2022-11-25T02:27:48.603Z,3.07
2022-11-25T02:30:17.403Z,3.23
2022-11-25T02:32:46.015Z,3.50
2022-11-25T02:35:30.175Z,3.70
2022-11-25T02:38:04.865Z,3.10
2022-11-25T02:40:39.236Z,3.50
2022-11-25T02:43:07.523Z,3.83
2022-11-25T02:45:45.961Z,3.87
2022-11-25T02:48:15.142Z,4.33
2022-11-25T02:50:43.888Z,4.07
2022-11-25T02:53:12.093Z,4.33
2022-11-25T02:55:42.218Z,4.23
2022-11-25T02:58:11.255Z,4.50
2022-11-25T03:00:39.370Z,5.17
2022-11-25T03:03:08.559Z,5.13
2022-11-25T03:05:37.113Z,4.77
2022-11-25T03:08:06.132Z,4.77
2022-11-25T03:10:34.265Z,4.60
2022-11-25T03:13:04.528Z,4.07
2022-11-25T03:15:33.116Z,4.17
2022-11-25T03:18:01.224Z,3.90
2022-11-25T03:20:29.956Z,4.23
2022-11-25T03:22:58.285Z,3.70
2022-11-25T03:25:26.926Z,4.20
2022-11-25T03:27:55.111Z,4.90
2022-11-25T03:30:26.887Z,4.33
2022-11-25T03:32:55.256Z,4.10
2022-11-25T03:35:23.949Z,4.03
2022-11-25T03:37:52.094Z,4.07
2022-11-25T03:40:20.303Z,4.83
2022-11-25T03:42:48.962Z,4.40
2022-11-25T03:45:17.748Z,4.57
2022-11-25T03:47:48.026Z,4.20
2022-11-25T03:50:17.339Z,5.87
2022-11-25T03:52:46.052Z,9.97
2022-11-25T03:55:14.216Z,9.67
2022-11-25T03:57:43.153Z,10.27
2022-11-25T04:00:12.871Z,8.43
2022-11-25T04:02:41.494Z,8.23
2022-11-25T04:05:11.376Z,8.47
2022-11-25T04:07:40.054Z,8.47
2022-11-25T04:10:09.653Z,7.73
2022-11-25T04:12:54.427Z,7.43
2022-11-25T04:15:25.901Z,7.10
2022-11-25T04:17:54.749Z,6.27
2022-11-25T04:20:24.694Z,5.60
2022-11-25T04:22:53.298Z,5.20
2022-11-25T04:25:21.525Z,4.17
2022-11-25T04:27:50.138Z,9.23
2022-11-25T04:30:18.618Z,7.23
2022-11-25T04:32:47.240Z,5.40
2022-11-25T04:35:15.402Z,4.60
2022-11-25T04:37:44.885Z,4.77
2022-11-25T04:40:14.364Z,4.67
2022-11-25T04:42:42.503Z,3.90
2022-11-25T04:45:22.903Z,4.60
2022-11-25T04:47:51.670Z,3.97
2022-11-25T04:50:21.825Z,5.77
2022-11-25T04:52:51.463Z,8.63
2022-11-25T04:55:20.207Z,10.30
2022-11-25T05:01:32.233Z,5.40
2022-11-25T05:04:00.854Z,5.23
2022-11-25T05:06:28.938Z,5.20
2022-11-25T05:08:58.927Z,4.00
2022-11-25T05:11:30.117Z,4.90
2022-11-25T05:13:58.693Z,4.57
2022-11-25T05:16:26.847Z,4.90
2022-11-25T05:18:57.275Z,4.27
2022-11-25T05:21:25.891Z,3.93
2022-11-25T05:23:56.112Z,4.67
2022-11-25T05:26:26.249Z,4.77
2022-11-25T05:28:54.407Z,4.60
2022-11-25T05:31:22.663Z,4.83
2022-11-25T05:33:50.935Z,4.30
2022-11-25T05:36:19.110Z,4.67
2022-11-25T05:38:47.835Z,4.30
2022-11-25T05:41:16.319Z,4.97
2022-11-25T05:43:47.089Z,5.17
2022-11-25T05:46:16.100Z,4.67
2022-11-25T05:48:44.332Z,4.00
2022-11-25T05:51:13.145Z,4.07
2022-11-25T05:53:41.396Z,4.07
2022-11-25T05:56:11.052Z,4.10
2022-11-25T05:58:39.661Z,4.07
2022-11-25T06:01:10.502Z,4.87
2022-11-25T06:03:39.545Z,4.47
2022-11-25T06:06:08.783Z,4.90
2022-11-25T06:08:39.278Z,4.97
2022-11-25T06:11:08.698Z,5.00
2022-11-25T06:13:36.820Z,4.87
2022-11-25T06:16:11.318Z,4.77
2022-11-25T06:18:40.176Z,5.53
2022-11-25T06:21:10.070Z,5.13
2022-11-25T06:23:39.437Z,6.10
2022-11-25T06:26:10.036Z,6.10
2022-11-25T06:28:38.274Z,5.47
2022-11-25T06:31:10.471Z,5.83
2022-11-25T06:33:38.659Z,5.93
2022-11-25T06:36:09.393Z,6.07
2022-11-25T06:38:37.502Z,5.83
2022-11-25T06:41:08.879Z,6.20
2022-11-25T06:43:37.489Z,6.20
2022-11-25T06:46:07.657Z,7.53
2022-11-25T06:48:38.005Z,8.13
2022-11-25T06:51:09.300Z,9.27
2022-11-25T06:53:38.012Z,12.13
2022-11-25T06:56:09.651Z,11.40
2022-11-25T06:58:40.352Z,9.33
2022-11-25T07:01:12.792Z,8.40
2022-11-25T07:03:43.235Z,7.80
2022-11-25T07:06:13.801Z,6.83
2022-11-25T07:08:45.498Z,6.80
2022-11-25T07:11:18.239Z,6.70
2022-11-25T07:13:47.126Z,6.50
2022-11-25T07:16:16.914Z,6.27
2022-11-25T07:18:46.506Z,6.20
2022-11-25T07:21:16.894Z,6.37
2022-11-25T07:23:46.796Z,6.77
2022-11-25T07:26:17.830Z,5.90
2022-11-25T07:28:47.257Z,7.07
2022-11-25T07:31:28.740Z,7.13
2022-11-25T07:34:03.919Z,6.57
2022-11-25T07:36:33.157Z,7.20
2022-11-25T07:39:03.781Z,7.17
2022-11-25T07:41:31.903Z,6.93
2022-11-25T07:44:02.713Z,7.47
2022-11-25T07:46:32.314Z,7.07
2022-11-25T07:49:03.640Z,7.17
2022-11-25T07:51:33.407Z,6.87
2022-11-25T07:54:04.179Z,6.67
2022-11-25T07:56:32.898Z,6.77
2022-11-25T07:59:01.731Z,6.90
2022-11-25T08:01:30.026Z,7.17
2022-11-25T08:03:58.805Z,7.07
2022-11-25T08:06:29.852Z,6.00
2022-11-25T08:09:00.166Z,6.03
2022-11-25T08:11:30.368Z,6.30
2022-11-25T08:14:00.419Z,6.50
2022-11-25T08:16:31.292Z,6.90
2022-11-25T08:19:00.450Z,7.33
2022-11-25T08:21:30.336Z,7.93
2022-11-25T08:24:08.353Z,7.40
2022-11-25T08:26:38.577Z,7.47
2022-11-25T08:29:08.469Z,7.13
2022-11-25T08:31:39.408Z,7.80
2022-11-25T08:34:09.036Z,7.67
2022-11-25T08:36:41.480Z,7.90
2022-11-25T08:39:36.207Z,7.90
2022-11-25T08:42:04.478Z,8.60
2022-11-25T08:44:33.190Z,8.40
2022-11-25T08:47:01.531Z,8.70
2022-11-25T08:49:33.793Z,9.17
2022-11-25T08:52:06.362Z,8.70
2022-11-25T08:54:34.984Z,8.27
2022-11-25T08:57:03.862Z,7.27
2022-11-25T08:59:32.449Z,6.67
2022-11-25T09:02:01.182Z,7.63
2022-11-25T09:04:29.483Z,7.17
2022-11-25T09:06:58.151Z,8.10
2022-11-25T09:09:28.311Z,8.23
2022-11-25T09:11:56.499Z,8.33
2022-11-25T09:14:25.149Z,10.07
2022-11-25T09:16:53.643Z,9.20
2022-11-25T09:19:22.314Z,8.77
2022-11-25T09:21:51.053Z,7.70
2022-11-25T09:24:19.172Z,6.57
2022-11-25T09:26:49.403Z,6.50
2022-11-25T09:29:17.997Z,5.90
2022-11-25T09:31:48.912Z,7.03
2022-11-25T09:34:21.637Z,6.83
2022-11-25T09:36:49.823Z,6.30
2022-11-25T09:39:18.548Z,6.30
2022-11-25T09:42:23.636Z,6.00
2022-11-25T09:45:30.269Z,6.23
2022-11-25T09:48:10.706Z,5.40
2022-11-25T09:50:52.357Z,5.63
2022-11-25T09:53:32.027Z,7.23
2022-11-25T09:56:04.822Z,6.57
2022-11-25T09:58:38.347Z,6.57
2022-11-25T10:01:13.320Z,7.67
2022-11-25T10:03:45.369Z,6.93
2022-11-25T10:06:18.238Z,7.37
2022-11-25T10:08:49.734Z,6.00
2022-11-25T10:11:27.715Z,6.03
2022-11-25T10:14:01.755Z,5.40
2022-11-25T10:16:40.964Z,5.60
2022-11-25T10:19:16.943Z,5.40
2022-11-25T10:21:46.885Z,5.30
2022-11-25T10:24:17.688Z,5.47
2022-11-25T10:26:50.129Z,4.87
2022-11-25T10:29:27.897Z,4.90
2022-11-25T10:32:10.425Z,4.43
2022-11-25T10:34:43.712Z,4.60
2022-11-25T10:37:16.730Z,5.23
2022-11-25T10:39:45.334Z,4.82
2022-11-25T10:42:23.442Z,4.80
2022-11-25T10:44:54.851Z,4.47
2022-11-25T10:47:37.173Z,4.80
2022-11-25T10:50:16.030Z,5.40
2022-11-25T10:52:51.338Z,5.10
2022-11-25T10:55:22.064Z,5.53
2022-11-25T10:57:50.224Z,5.90
2022-11-25T11:00:33.208Z,4.82
2022-11-25T11:03:15.792Z,6.17
2022-11-25T11:05:48.846Z,6.13
2022-11-25T11:08:23.376Z,5.15
2022-11-25T11:11:15.466Z,5.38
2022-11-25T11:13:44.255Z,4.80
2022-11-25T11:16:29.760Z,4.70
2022-11-25T11:18:59.385Z,4.53
2022-11-25T11:21:32.612Z,4.43
2022-11-25T11:24:01.715Z,4.75
2022-11-25T11:26:32.259Z,4.33
2022-11-25T11:29:03.702Z,4.10
2022-11-25T11:31:39.699Z,4.97
2022-11-25T11:34:24.998Z,6.57
2022-11-25T11:37:10.346Z,5.20
2022-11-25T11:40:00.102Z,4.63
2022-11-25T11:42:35.962Z,4.70
2022-11-25T11:45:16.519Z,4.35
2022-11-25T11:48:01.090Z,3.78
2022-11-25T11:50:33.070Z,4.22
2022-11-25T11:53:10.753Z,4.25
2022-11-25T11:56:19.026Z,3.93
2022-11-25T11:58:59.847Z,6.10
2022-11-25T12:01:39.927Z,4.50
2022-11-25T12:04:20.816Z,4.60
2022-11-25T12:06:59.883Z,4.70
2022-11-25T12:09:33.103Z,3.80
2022-11-25T12:12:07.122Z,4.10
2022-11-25T12:14:42.366Z,4.20
2022-11-25T12:17:16.455Z,4.68
2022-11-25T12:19:56.300Z,3.92
2022-11-25T12:22:28.992Z,3.88
2022-11-25T12:25:05.355Z,4.63
2022-11-25T12:27:37.627Z,4.10
2022-11-25T12:30:08.057Z,4.47
2022-11-25T12:33:02.738Z,4.38
2022-11-25T12:35:43.578Z,3.83
2022-11-25T12:38:24.994Z,4.25
2022-11-25T12:41:01.337Z,4.00
2022-11-25T12:43:36.891Z,3.73
2022-11-25T12:46:15.187Z,3.57
2022-11-25T12:48:45.079Z,3.63
2022-11-25T12:51:32.713Z,3.60
2022-11-25T12:54:11.859Z,3.63
2022-11-25T12:56:57.785Z,3.75
2022-11-25T12:59:51.104Z,3.30
2022-11-25T13:02:45.859Z,3.78
2022-11-25T13:05:41.323Z,3.83
2022-11-25T13:08:25.738Z,3.30
2022-11-25T13:11:23.126Z,3.67
2022-11-25T13:13:58.629Z,3.47
2022-11-25T13:16:28.870Z,4.25
2022-11-25T13:18:58.301Z,3.55
2022-11-25T13:21:29.036Z,3.22
2022-11-25T13:24:00.035Z,3.33
2022-11-25T13:26:51.532Z,3.42
2022-11-25T13:29:59.295Z,3.33
2022-11-25T13:32:43.277Z,3.40
2022-11-25T13:35:59.604Z,3.00
2022-11-25T13:38:58.062Z,2.80
2022-11-25T13:41:37.797Z,3.15
2022-11-25T13:44:12.676Z,3.25
2022-11-25T13:46:44.021Z,2.90
2022-11-25T13:49:25.028Z,3.17
2022-11-25T13:51:55.485Z,2.97
2022-11-25T13:54:32.119Z,2.90
2022-11-25T13:57:18.425Z,3.70
2022-11-25T13:59:56.482Z,3.80
2022-11-25T14:02:38.672Z,3.70
2022-11-25T14:05:29.824Z,3.83
2022-11-25T14:08:09.050Z,3.33
2022-11-25T14:10:47.277Z,3.50
2022-11-25T14:13:49.870Z,3.40
2022-11-25T14:16:37.937Z,3.67
2022-11-25T14:22:31.530Z,2.97
2022-11-25T14:25:20.590Z,3.00
2022-11-25T14:27:52.739Z,3.33
2022-11-25T14:30:22.662Z,3.03
2022-11-25T14:32:58.217Z,2.97
2022-11-25T14:35:31.622Z,3.22
2022-11-25T14:38:04.849Z,3.33
2022-11-25T14:40:38.013Z,2.67
2022-11-25T14:43:09.388Z,3.30
2022-11-25T14:45:39.612Z,3.08
2022-11-25T14:48:15.146Z,3.00
2022-11-25T14:50:58.569Z,3.50
2022-11-25T14:53:27.472Z,3.40
2022-11-25T14:55:58.510Z,3.25
2022-11-25T14:58:28.105Z,3.30
2022-11-25T15:01:05.220Z,3.10
2022-11-25T15:03:33.855Z,3.35
2022-11-25T15:06:05.389Z,3.55
2022-11-25T15:08:40.948Z,3.05
2022-11-25T15:11:14.730Z,3.47
2022-11-25T15:13:46.059Z,3.20
2022-11-25T15:16:18.266Z,3.23
2022-11-25T15:18:50.075Z,3.30
2022-11-25T15:21:23.523Z,3.30
2022-11-25T15:23:51.897Z,3.28
2022-11-25T15:26:23.379Z,3.08
2022-11-25T15:28:56.156Z,3.08
2022-11-25T15:31:30.400Z,2.90
2022-11-25T15:34:02.897Z,3.40
2022-11-25T15:36:31.881Z,3.58
2022-11-25T15:39:16.593Z,2.88
2022-11-25T15:41:46.793Z,2.97
2022-11-25T15:44:23.524Z,3.15
2022-11-25T15:47:02.289Z,3.67
2022-11-25T15:49:31.139Z,3.33
2022-11-25T15:52:04.446Z,3.80
2022-11-25T15:54:39.342Z,3.47
2022-11-25T15:57:18.302Z,3.20
2022-11-25T15:59:52.043Z,3.43
2022-11-25T16:02:38.077Z,3.30
2022-11-25T16:05:39.331Z,3.63
2022-11-25T16:08:31.203Z,3.38
2022-11-25T16:11:01.791Z,3.85
2022-11-25T16:13:36.148Z,3.20
2022-11-25T16:16:15.154Z,3.43
2022-11-25T16:19:06.148Z,3.60
2022-11-25T16:21:48.576Z,3.78
2022-11-25T16:24:47.408Z,2.93
2022-11-25T16:27:22.639Z,3.55
2022-11-25T16:29:57.755Z,4.33
2022-11-25T16:32:28.295Z,4.50
2022-11-25T16:35:01.177Z,3.28
2022-11-25T16:37:29.321Z,4.00
2022-11-25T16:39:57.465Z,4.47
2022-11-25T16:42:26.936Z,3.72
2022-11-25T16:44:55.043Z,3.45
2022-11-25T16:47:24.657Z,3.30
2022-11-25T16:49:52.760Z,4.03
2022-11-25T16:52:22.761Z,4.40
2022-11-25T16:54:52.357Z,4.15
2022-11-25T16:57:23.122Z,3.75
2022-11-25T16:59:57.240Z,3.88
2022-11-25T17:02:27.390Z,3.90
2022-11-25T17:04:58.056Z,4.53
2022-11-25T17:07:33.265Z,3.72
2022-11-25T17:10:02.513Z,4.20
2022-11-25T17:12:33.196Z,4.22
2022-11-25T17:15:02.411Z,4.07
2022-11-25T17:17:31.370Z,4.63
2022-11-25T17:20:00.098Z,4.63
2022-11-25T17:22:33.490Z,4.37
2022-11-25T17:25:06.465Z,4.90
2022-11-25T17:27:35.523Z,4.43
2022-11-25T17:30:06.574Z,3.95
2022-11-25T17:32:36.043Z,4.50
2022-11-25T17:35:04.336Z,4.07
2022-11-25T17:37:34.334Z,4.50
2022-11-25T17:40:02.520Z,4.57
2022-11-25T17:42:33.610Z,4.25
2022-11-25T17:45:02.043Z,4.90
2022-11-25T17:47:30.120Z,5.40
2022-11-25T17:49:58.927Z,5.07
2022-11-25T17:52:27.052Z,5.57
2022-11-25T17:54:56.710Z,5.53
2022-11-25T17:57:29.158Z,5.18
2022-11-25T18:03:45.169Z,4.80
2022-11-25T18:06:13.316Z,5.45
2022-11-25T18:08:41.380Z,5.00
2022-11-25T18:11:16.253Z,5.10
2022-11-25T18:13:47.815Z,5.85
2022-11-25T18:16:19.199Z,5.73
2022-11-25T18:18:50.699Z,5.77
2022-11-25T18:21:18.738Z,5.53
2022-11-25T18:23:47.276Z,5.27
2022-11-25T18:26:17.224Z,4.93
2022-11-25T18:28:45.473Z,5.70
2022-11-25T18:31:14.432Z,5.23
2022-11-25T18:33:42.806Z,5.13
2022-11-25T18:36:15.217Z,5.63
2022-11-25T18:38:43.795Z,4.50
2022-11-25T18:41:22.178Z,4.90
2022-11-25T18:43:50.612Z,5.35
2022-11-25T18:46:18.861Z,5.20
2022-11-25T18:48:46.997Z,4.57
2022-11-25T18:51:16.858Z,4.80
2022-11-25T18:53:44.931Z,4.70
2022-11-25T18:56:17.671Z,4.97
2022-11-25T18:58:51.968Z,7.03
2022-11-25T19:01:24.329Z,7.23
2022-11-25T19:03:53.809Z,5.80
2022-11-25T19:06:22.408Z,5.33
2022-11-25T19:08:52.962Z,5.15
2022-11-25T19:11:28.458Z,5.15
2022-11-25T19:14:03.255Z,4.77
2022-11-25T19:16:31.560Z,5.37
2022-11-25T19:18:59.721Z,4.87
2022-11-25T19:21:30.576Z,5.03
2022-11-25T19:24:01.691Z,5.23
2022-11-25T19:26:36.027Z,4.90
2022-11-25T19:29:08.621Z,5.18
2022-11-25T19:31:37.387Z,4.95
2022-11-25T19:34:05.763Z,4.88
2022-11-25T19:36:35.517Z,5.03
2022-11-25T19:39:04.072Z,5.13
2022-11-25T19:41:32.168Z,5.20
2022-11-25T19:44:00.808Z,5.33
2022-11-25T19:46:46.290Z,4.67
2022-11-25T19:49:21.907Z,5.43
2022-11-25T19:51:50.036Z,4.53
2022-11-25T19:54:20.450Z,5.00
2022-11-25T19:56:49.069Z,5.00
2022-11-25T19:59:17.681Z,5.00
2022-11-25T20:01:47.698Z,4.60
2022-11-25T20:04:21.726Z,5.23
2022-11-25T20:06:50.517Z,4.77
2022-11-25T20:09:18.746Z,6.07
2022-11-25T20:11:47.993Z,5.00
2022-11-25T20:14:16.072Z,5.50
2022-11-25T20:16:44.190Z,5.07
2022-11-25T20:19:18.775Z,5.60
2022-11-25T20:21:49.105Z,5.53
2022-11-25T20:24:20.211Z,4.77
2022-11-25T20:26:50.799Z,6.80
2022-11-25T20:29:26.082Z,7.25
2022-11-25T20:31:58.977Z,7.20
2022-11-25T20:34:28.479Z,9.35
2022-11-25T20:36:56.653Z,9.90
2022-11-25T20:39:24.829Z,7.93
2022-11-25T20:41:54.294Z,8.63
2022-11-25T20:44:22.783Z,8.60
2022-11-25T20:46:50.868Z,8.43
2022-11-25T20:49:27.956Z,7.80
2022-11-25T20:51:58.136Z,8.17
2022-11-25T20:54:26.559Z,7.60
2022-11-25T20:56:57.125Z,8.30
2022-11-25T20:59:26.083Z,8.57
2022-11-25T21:01:54.825Z,8.77
2022-11-25T21:04:23.221Z,7.93
2022-11-25T21:06:51.340Z,7.80
2022-11-25T21:09:23.909Z,7.07
2022-11-25T21:11:52.511Z,7.10
2022-11-25T21:14:21.647Z,7.35
2022-11-25T21:16:49.845Z,6.80
2022-11-25T21:19:18.633Z,7.03
2022-11-25T21:21:48.618Z,7.10
2022-11-25T21:24:28.332Z,6.67
2022-11-25T21:26:57.589Z,6.50
2022-11-25T21:29:26.205Z,6.78
2022-11-25T21:31:54.932Z,7.07
2022-11-25T21:34:23.150Z,6.77
2022-11-25T21:36:55.665Z,7.00
2022-11-25T21:39:30.445Z,7.00
2022-11-25T21:42:02.295Z,6.83
2022-11-25T21:44:34.552Z,6.30
2022-11-25T21:47:03.048Z,6.60
2022-11-25T21:49:31.138Z,6.40
2022-11-25T21:51:59.775Z,6.70
2022-11-25T21:54:29.244Z,7.30
2022-11-25T21:56:59.580Z,7.30
2022-11-25T21:59:28.841Z,7.10
2022-11-25T22:01:57.558Z,7.43
2022-11-25T22:04:25.788Z,7.77
2022-11-25T22:06:55.652Z,6.87
2022-11-25T22:09:23.961Z,6.40
2022-11-25T22:11:53.632Z,7.00
2022-11-25T22:14:28.890Z,6.60
2022-11-25T22:16:58.479Z,7.53
2022-11-25T22:19:29.344Z,6.13
2022-11-25T22:21:58.189Z,6.73
2022-11-25T22:24:26.780Z,7.60
2022-11-25T22:26:58.282Z,7.63
2022-11-25T22:29:34.712Z,7.27
2022-11-25T22:32:07.044Z,7.17
2022-11-25T22:34:38.480Z,6.10
2022-11-25T22:37:16.946Z,7.33
2022-11-25T22:39:45.050Z,6.67
2022-11-25T22:42:21.664Z,7.20
2022-11-25T22:44:50.824Z,9.73
2022-11-25T22:47:26.928Z,9.03
2022-11-25T22:49:55.930Z,19.47
2022-11-25T22:52:27.046Z,17.93
2022-11-25T22:54:55.681Z,14.70
2022-11-25T22:57:25.236Z,12.83
2022-11-25T22:59:53.345Z,11.30
2022-11-25T23:02:24.888Z,8.27
2022-11-25T23:04:55.594Z,7.97
2022-11-25T23:07:25.124Z,7.22
2022-11-25T23:09:59.833Z,7.37
2022-11-25T23:12:29.461Z,6.35
2022-11-25T23:15:01.671Z,7.03
2022-11-25T23:17:30.394Z,6.87
2022-11-25T23:19:58.556Z,6.60
2022-11-25T23:22:27.077Z,6.80
2022-11-25T23:24:58.238Z,6.95
2022-11-25T23:27:26.825Z,5.30
2022-11-25T23:30:00.024Z,5.60
2022-11-25T23:32:29.182Z,5.38
2022-11-25T23:35:00.225Z,5.60
2022-11-25T23:37:28.553Z,5.45
2022-11-25T23:39:57.084Z,5.43
2022-11-25T23:42:25.145Z,6.30
2022-11-25T23:44:53.718Z,4.97
2022-11-25T23:47:24.402Z,5.18
2022-11-25T23:49:57.153Z,6.13
2022-11-25T23:52:28.631Z,5.50
2022-11-25T23:54:56.941Z,5.13
2022-11-25T23:57:28.186Z,4.83
2022-11-25T23:59:56.311Z,5.50
